Time;durP1;ratioP1;P1;durP2;ratioP2;P2;SDS_P1;SDS_P2;PMS_P1;PMS_P2;Temp;Humidity;BMP_temperature;BMP_pressure;BME280_temperature;BME280_humidity;BME280_pressure;Samples;Min_cycle;Max_cycle;Signal;HPM_P1;HPM_P2
2023/08/30 00:00:13;;;;;;;9.00;4.13;;;15.00;1.00;;;;;;5011524;28;20507;-76
2023/08/30 00:02:38;;;;;;;8.20;4.07;;;15.00;1.00;;;;;;5011849;28;20392;-76
2023/08/30 00:05:04;;;;;;;10.95;4.70;;;15.10;1.00;;;;;;5011662;28;20464;-76
2023/08/30 00:07:30;;;;;;;9.32;4.88;;;15.10;1.00;;;;;;5010976;28;20758;-76
2023/08/30 00:09:59;;;;;;;9.33;4.30;;;15.10;4.00;;;;;;5011741;28;20408;-76
2023/08/30 00:12:25;;;;;;;9.45;4.50;;;15.10;2.20;;;;;;5011718;28;20472;-76
2023/08/30 00:14:51;;;;;;;13.68;4.60;;;15.20;1.00;;;;;;5012050;28;20385;-76
2023/08/30 00:17:17;;;;;;;8.70;4.22;;;15.10;1.00;;;;;;5011865;28;20858;-76
2023/08/30 00:19:42;;;;;;;9.60;4.60;;;15.10;1.00;;;;;;5011354;28;20428;-76
2023/08/30 00:22:08;;;;;;;9.13;4.50;;;15.00;1.00;;;;;;5011131;28;20397;-76
2023/08/30 00:24:34;;;;;;;8.98;4.35;;;15.00;4.50;;;;;;5011359;28;20392;-76
2023/08/30 00:27:01;;;;;;;8.43;4.70;;;14.90;3.80;;;;;;5011333;28;20455;-76
2023/08/30 00:29:30;;;;;;;9.95;4.78;;;14.90;6.20;;;;;;5011441;28;20392;-76
2023/08/30 00:31:56;;;;;;;9.23;4.68;;;14.90;17.40;;;;;;5011136;28;20431;-76
2023/08/30 00:34:22;;;;;;;8.47;4.20;;;14.90;40.10;;;;;;5011326;28;20384;-76
2023/08/30 00:36:48;;;;;;;9.23;4.57;;;15.00;28.40;;;;;;5011309;28;20381;-76
2023/08/30 00:39:13;;;;;;;9.30;4.70;;;15.10;13.00;;;;;;5010986;28;20401;-76
2023/08/30 00:41:39;;;;;;;9.95;5.00;;;15.00;8.50;;;;;;5011099;28;20713;-76
2023/08/30 00:44:05;;;;;;;9.60;4.40;;;15.10;14.30;;;;;;5009713;28;20829;-76
2023/08/30 00:46:32;;;;;;;11.50;4.60;;;15.10;1.00;;;;;;5011009;28;20397;-76
2023/08/30 00:49:02;;;;;;;9.98;5.47;;;15.10;1.00;;;;;;5010894;28;20796;-76
2023/08/30 00:51:28;;;;;;;9.70;5.03;;;15.00;21.90;;;;;;5010765;28;20407;-76
2023/08/30 00:53:55;;;;;;;10.63;5.20;;;14.90;17.40;;;;;;5010950;28;20384;-76
2023/08/30 00:56:21;;;;;;;11.70;4.95;;;14.80;40.20;;;;;;5011219;28;20393;-76
2023/08/30 00:58:48;;;;;;;9.90;5.43;;;14.90;60.30;;;;;;5011255;28;20467;-76
2023/08/30 01:01:16;;;;;;;9.63;5.32;;;14.90;45.70;;;;;;5011189;28;20481;-77
2023/08/30 01:03:41;;;;;;;11.38;5.50;;;14.90;52.20;;;;;;5011761;28;20422;-76
2023/08/30 01:06:07;;;;;;;10.30;5.00;;;14.90;68.00;;;;;;5010796;28;20404;-76
2023/08/30 01:08:34;;;;;;;9.00;4.60;;;15.00;53.00;;;;;;5011102;28;20476;-76
2023/08/30 01:11:38;;;;;;;10.73;4.77;;;15.00;34.40;;;;;;5010643;28;20485;-76
2023/08/30 01:14:06;;;;;;;10.75;5.40;;;14.90;39.90;;;;;;5010306;28;20919;-75
2023/08/30 01:16:32;;;;;;;9.93;5.00;;;14.80;31.50;;;;;;5010565;28;20995;-76
2023/08/30 01:19:01;;;;;;;9.13;4.90;;;14.70;87.10;;;;;;5010166;28;20869;-76
2023/08/30 01:21:50;;;;;;;10.07;4.60;;;14.80;57.30;;;;;;5010510;28;20762;-75
2023/08/30 01:24:26;;;;;;;9.50;4.95;;;14.70;43.30;;;;;;5010612;28;20385;-76
2023/08/30 01:27:11;;;;;;;9.77;4.50;;;14.60;69.60;;;;;;5010512;28;20478;-76
2023/08/30 01:29:40;;;;;;;10.10;4.60;;;14.70;66.20;;;;;;5010151;28;20392;-76
2023/08/30 01:32:08;;;;;;;8.60;4.20;;;14.70;56.90;;;;;;5010132;28;20551;-76
2023/08/30 01:34:36;;;;;;;9.15;4.55;;;14.60;67.90;;;;;;5009816;28;20385;-76
2023/08/30 01:37:03;;;;;;;9.97;5.10;;;14.50;54.60;;;;;;5010011;28;20882;-76
2023/08/30 01:39:29;;;;;;;9.70;5.13;;;14.40;59.20;;;;;;5009926;28;20485;-76
2023/08/30 01:41:58;;;;;;;10.77;4.32;;;14.50;55.80;;;;;;5009866;28;20474;-76
2023/08/30 01:44:27;;;;;;;10.20;4.90;;;14.40;47.70;;;;;;5009889;28;20396;-76
2023/08/30 01:46:53;;;;;;;10.73;4.80;;;14.40;29.50;;;;;;5009708;28;20471;-76
2023/08/30 01:49:19;;;;;;;9.55;4.40;;;14.40;19.20;;;;;;5009907;28;20405;-76
2023/08/30 01:51:45;;;;;;;9.32;4.70;;;14.40;23.10;;;;;;5009735;28;20393;-76
2023/08/30 01:54:15;;;;;;;10.60;5.10;;;14.30;29.50;;;;;;5009574;28;20399;-76
2023/08/30 01:56:40;;;;;;;10.57;5.68;;;14.30;35.90;;;;;;5009200;28;20476;-75
2023/08/30 01:59:06;;;;;;;11.17;5.13;;;14.20;46.10;;;;;;5009381;28;20484;-76
2023/08/30 02:01:31;;;;;;;9.77;4.90;;;14.10;82.30;;;;;;5009377;28;20413;-76
2023/08/30 02:03:58;;;;;;;9.15;4.75;;;14.00;95.70;;;;;;5009038;28;20397;-76
2023/08/30 02:06:52;;;;;;;10.63;4.80;;;14.00;99.90;;;;;;5009602;28;20385;-75
2023/08/30 02:09:24;;;;;;;9.63;5.15;;;14.00;99.90;;;;;;4982207;28;20564;-76
2023/08/30 02:11:52;;;;;;;12.90;5.50;;;14.00;99.90;;;;;;5009838;28;20389;-76
2023/08/30 02:14:18;;;;;;;10.25;4.82;;;14.10;99.90;;;;;;5009789;28;20383;-76
2023/08/30 02:16:46;;;;;;;10.02;5.30;;;14.00;99.90;;;;;;5009235;28;20842;-76
2023/08/30 02:19:13;;;;;;;10.83;5.27;;;14.00;99.90;;;;;;5009157;28;20482;-75
2023/08/30 02:21:40;;;;;;;12.10;5.53;;;14.00;99.90;;;;;;5009299;28;20480;-76
2023/08/30 02:24:06;;;;;;;11.23;5.28;;;13.90;99.90;;;;;;5009250;28;20480;-76
2023/08/30 02:26:31;;;;;;;9.90;4.90;;;13.80;99.90;;;;;;5009025;28;20377;-76
2023/08/30 02:28:57;;;;;;;11.93;5.15;;;13.70;99.90;;;;;;5009042;28;20431;-76
2023/08/30 02:31:22;;;;;;;11.30;4.87;;;13.70;99.90;;;;;;5008610;28;20393;-76
2023/08/30 02:33:48;;;;;;;11.30;5.97;;;13.70;99.90;;;;;;5009599;28;20397;-76
2023/08/30 02:36:13;;;;;;;9.90;4.90;;;13.70;99.90;;;;;;5009273;28;20393;-76
2023/08/30 02:38:39;;;;;;;10.70;5.50;;;13.70;99.90;;;;;;5009496;28;20459;-76
2023/08/30 02:41:04;;;;;;;10.60;5.17;;;13.70;99.90;;;;;;5009145;28;20429;-76
2023/08/30 02:43:30;;;;;;;12.00;5.60;;;13.70;99.90;;;;;;5009199;28;20393;-75
2023/08/30 02:45:56;;;;;;;10.65;4.97;;;13.70;99.90;;;;;;5009082;28;20841;-76
2023/08/30 02:48:21;;;;;;;11.18;5.40;;;13.70;99.90;;;;;;5009250;28;20393;-77
2023/08/30 02:50:47;;;;;;;12.00;5.10;;;13.80;99.90;;;;;;5009437;28;20424;-76
2023/08/30 02:53:12;;;;;;;13.10;5.18;;;13.80;99.90;;;;;;5008996;28;20385;-75
2023/08/30 02:55:38;;;;;;;11.00;5.90;;;13.80;99.90;;;;;;5008877;28;20443;-76
2023/08/30 02:58:03;;;;;;;9.67;4.53;;;13.80;99.90;;;;;;5008637;28;20929;-75
2023/08/30 03:00:29;;;;;;;12.97;5.30;;;13.90;99.90;;;;;;5008381;28;20523;-76
2023/08/30 03:02:54;;;;;;;10.05;5.35;;;13.90;99.90;;;;;;5008647;28;20472;-75
2023/08/30 03:05:20;;;;;;;8.97;4.50;;;13.90;99.90;;;;;;5009325;28;20381;-75
2023/08/30 03:07:46;;;;;;;9.87;5.20;;;14.00;99.90;;;;;;5007827;28;20805;-76
2023/08/30 03:10:12;;;;;;;10.80;5.40;;;14.00;99.90;;;;;;5008528;28;20953;-76
2023/08/30 03:12:38;;;;;;;11.32;4.53;;;13.90;99.90;;;;;;5008461;28;20834;-76
2023/08/30 03:15:04;;;;;;;9.93;5.30;;;14.00;99.90;;;;;;5008326;28;20389;-76
2023/08/30 03:17:30;;;;;;;9.20;5.20;;;14.00;99.90;;;;;;5008701;28;20408;-76
2023/08/30 03:19:56;;;;;;;11.20;5.80;;;14.00;99.90;;;;;;5008545;28;20424;-75
2023/08/30 03:22:22;;;;;;;9.10;4.53;;;14.00;99.90;;;;;;5009089;28;20468;-75
2023/08/30 03:24:49;;;;;;;10.77;5.00;;;14.00;99.90;;;;;;5009055;28;20389;-76
2023/08/30 03:27:14;;;;;;;10.10;4.95;;;14.10;99.90;;;;;;5008486;28;20385;-75
2023/08/30 03:29:40;;;;;;;10.97;5.70;;;14.20;99.90;;;;;;5008078;28;20912;-76
2023/08/30 03:32:05;;;;;;;9.60;5.00;;;14.30;99.90;;;;;;5008410;28;20403;-76
2023/08/30 03:34:31;;;;;;;11.30;5.00;;;14.30;99.90;;;;;;5008206;28;20397;-75
2023/08/30 03:36:56;;;;;;;10.40;5.03;;;14.40;99.90;;;;;;5008377;28;20464;-75
2023/08/30 03:39:23;;;;;;;10.20;5.50;;;14.40;99.90;;;;;;5008490;28;20408;-76
2023/08/30 03:41:49;;;;;;;9.93;5.10;;;14.40;99.90;;;;;;5008754;28;20400;-76
2023/08/30 03:44:14;;;;;;;9.03;4.60;;;14.50;99.90;;;;;;5008044;28;20404;-76
2023/08/30 03:46:40;;;;;;;10.00;5.00;;;14.50;99.90;;;;;;5008545;28;20412;-76
2023/08/30 03:49:05;;;;;;;10.23;4.70;;;14.60;99.90;;;;;;5008587;28;20389;-76
2023/08/30 03:51:31;;;;;;;9.38;4.78;;;14.60;99.90;;;;;;5008465;28;20389;-76
2023/08/30 03:53:57;;;;;;;11.47;5.20;;;14.70;99.90;;;;;;5008244;28;20419;-76
2023/08/30 03:56:22;;;;;;;9.87;4.90;;;14.80;99.90;;;;;;5008065;28;20396;-76
2023/08/30 03:58:48;;;;;;;9.90;4.68;;;14.90;73.50;;;;;;5008499;28;20464;-76
2023/08/30 04:01:14;;;;;;;11.03;5.70;;;14.90;69.60;;;;;;5008102;28;20424;-76
2023/08/30 04:03:39;;;;;;;9.50;5.00;;;14.90;40.60;;;;;;5008501;28;20403;-76
2023/08/30 04:06:05;;;;;;;9.52;4.80;;;14.90;38.80;;;;;;5008377;28;20393;-76
2023/08/30 04:08:31;;;;;;;10.60;5.50;;;14.90;19.50;;;;;;5008119;28;20419;-76
2023/08/30 04:10:56;;;;;;;8.70;4.53;;;14.80;45.40;;;;;;5008453;28;20392;-76
2023/08/30 04:13:22;;;;;;;10.18;4.90;;;14.70;75.30;;;;;;5008231;28;20476;-76
2023/08/30 04:15:48;;;;;;;10.87;4.90;;;14.80;72.00;;;;;;5008913;28;20393;-76
2023/08/30 04:18:13;;;;;;;11.23;5.97;;;14.90;72.50;;;;;;5008901;28;20459;-77
2023/08/30 04:20:44;;;;;;;9.10;4.70;;;14.90;34.60;;;;;;5011401;28;20893;-76
2023/08/30 04:23:10;;;;;;;9.98;5.03;;;15.00;30.50;;;;;;5011530;28;20395;-76
2023/08/30 04:25:36;;;;;;;9.67;4.93;;;15.00;17.90;;;;;;5011367;28;20491;-76
2023/08/30 04:28:02;;;;;;;9.13;4.82;;;14.90;24.90;;;;;;5011117;28;20391;-76
2023/08/30 04:30:27;;;;;;;10.43;5.47;;;14.90;28.20;;;;;;5011320;28;20832;-76
2023/08/30 04:32:53;;;;;;;17.57;6.00;;;14.90;18.50;;;;;;5011436;28;20800;-76
2023/08/30 04:35:18;;;;;;;10.02;5.10;;;15.00;15.90;;;;;;5011700;28;20475;-76
2023/08/30 04:37:44;;;;;;;11.10;5.35;;;15.10;6.40;;;;;;5011124;28;20565;-76
2023/08/30 04:40:10;;;;;;;12.27;5.13;;;15.00;1.00;;;;;;5010961;28;20426;-76
2023/08/30 04:42:36;;;;;;;11.35;5.30;;;14.90;1.00;;;;;;5010626;28;20746;-76
2023/08/30 04:45:02;;;;;;;9.67;5.27;;;14.80;12.50;;;;;;5011010;28;20393;-75
2023/08/30 04:47:29;;;;;;;9.88;4.68;;;14.80;28.40;;;;;;5010832;28;20892;-75
2023/08/30 04:49:55;;;;;;;10.95;5.32;;;14.70;47.20;;;;;;4993596;28;20436;-75
2023/08/30 04:52:21;;;;;;;10.97;5.50;;;14.70;54.10;;;;;;5011889;28;20860;-75
2023/08/30 04:54:48;;;;;;;10.07;5.07;;;14.60;45.70;;;;;;4994162;28;20451;-74
2023/08/30 04:57:15;;;;;;;11.60;4.80;;;14.60;79.10;;;;;;5010556;28;20504;-75
2023/08/30 04:59:44;;;;;;;11.30;4.93;;;14.60;70.00;;;;;;5010471;28;20873;-75
2023/08/30 05:02:10;;;;;;;10.45;5.05;;;14.70;91.50;;;;;;5010849;28;20430;-76
2023/08/30 05:04:36;;;;;;;15.80;5.47;;;14.80;83.10;;;;;;5010830;28;20433;-77
2023/08/30 05:07:02;;;;;;;10.00;4.90;;;14.80;90.20;;;;;;5010672;28;20723;-77
2023/08/30 05:09:28;;;;;;;12.88;5.38;;;14.80;60.80;;;;;;5010556;28;20771;-77
2023/08/30 05:11:54;;;;;;;9.50;4.50;;;14.80;70.00;;;;;;5010963;28;20400;-77
2023/08/30 05:14:20;;;;;;;8.85;4.10;;;14.80;97.80;;;;;;5013180;28;20451;-77
2023/08/30 05:16:46;;;;;;;10.80;5.20;;;14.90;96.00;;;;;;5011574;28;20436;-77
2023/08/30 05:19:11;;;;;;;10.50;5.07;;;14.80;71.20;;;;;;5012104;28;20447;-77
2023/08/30 05:21:37;;;;;;;10.52;5.05;;;14.80;93.00;;;;;;5011494;28;20417;-77
2023/08/30 05:24:03;;;;;;;10.20;5.03;;;14.90;99.90;;;;;;5011203;28;20393;-77
2023/08/30 05:26:28;;;;;;;9.50;4.90;;;14.90;71.50;;;;;;5010770;28;20400;-77
2023/08/30 05:28:54;;;;;;;10.60;5.20;;;14.90;85.30;;;;;;5011465;28;20480;-77
2023/08/30 05:31:19;;;;;;;10.27;5.23;;;14.90;90.50;;;;;;5010422;28;20401;-75
2023/08/30 05:33:45;;;;;;;9.77;5.27;;;15.00;76.90;;;;;;5010599;28;20466;-75
2023/08/30 05:36:10;;;;;;;12.30;5.20;;;15.10;90.70;;;;;;5010154;28;20491;-75
2023/08/30 05:38:36;;;;;;;10.00;5.38;;;15.20;88.80;;;;;;5010056;28;20404;-74
2023/08/30 05:41:02;;;;;;;13.00;5.60;;;15.30;62.90;;;;;;5009622;28;20774;-75
2023/08/30 05:43:27;;;;;;;9.60;5.00;;;15.40;43.50;;;;;;5010085;28;20523;-76
2023/08/30 05:45:53;;;;;;;12.70;5.53;;;15.40;2.70;;;;;;5009680;28;20413;-76
2023/08/30 05:48:18;;;;;;;9.38;5.38;;;15.30;1.00;;;;;;5010751;28;20392;-76
2023/08/30 05:50:45;;;;;;;9.67;5.13;;;15.20;24.90;;;;;;5010102;28;20479;-76
2023/08/30 05:53:10;;;;;;;13.35;6.10;;;15.40;28.80;;;;;;5010643;28;20928;-76
2023/08/30 05:55:37;;;;;;;10.73;5.30;;;15.50;1.00;;;;;;5009583;28;20484;-76
2023/08/30 05:58:03;;;;;;;10.32;4.57;;;15.50;1.00;;;;;;5009973;28;20454;-76
2023/08/30 06:00:28;;;;;;;10.77;4.18;;;15.50;1.00;;;;;;5010151;28;20463;-76
2023/08/30 06:02:54;;;;;;;11.30;5.80;;;15.60;1.00;;;;;;5010601;28;20397;-76
2023/08/30 06:05:19;;;;;;;9.53;5.13;;;15.60;1.00;;;;;;5031186;28;20401;-76
2023/08/30 06:07:45;;;;;;;8.85;4.40;;;15.70;1.00;;;;;;5037907;28;20434;-76
2023/08/30 06:10:12;;;;;;;9.63;4.38;;;15.70;1.00;;;;;;5028251;28;21380;-76
2023/08/30 06:12:38;;;;;;;11.50;4.80;;;15.80;1.00;;;;;;5029277;28;20477;-76
2023/08/30 06:15:04;;;;;;;8.27;4.17;;;15.90;1.00;;;;;;5045326;28;20785;-76
2023/08/30 06:17:29;;;;;;;10.02;4.40;;;15.90;1.00;;;;;;5049009;28;20877;-76
2023/08/30 06:19:55;;;;;;;7.73;4.20;;;15.90;1.00;;;;;;5048955;28;20471;-76
2023/08/30 06:22:21;;;;;;;10.90;4.90;;;15.90;1.00;;;;;;5043500;28;20740;-76
2023/08/30 06:24:46;;;;;;;8.43;4.13;;;15.90;1.00;;;;;;5011179;28;20395;-76
2023/08/30 06:27:12;;;;;;;7.97;4.30;;;15.80;1.00;;;;;;5028856;28;20395;-76
2023/08/30 06:29:37;;;;;;;8.67;4.00;;;15.90;1.00;;;;;;5028678;28;20387;-76
2023/08/30 06:32:03;;;;;;;9.83;4.70;;;16.00;1.00;;;;;;5028855;28;20395;-77
2023/08/30 06:34:29;;;;;;;11.27;4.63;;;15.90;1.00;;;;;;5028975;28;20478;-76
2023/08/30 06:36:54;;;;;;;10.03;4.87;;;16.00;1.00;;;;;;5028735;28;20827;-76
2023/08/30 06:39:20;;;;;;;9.30;4.70;;;16.10;1.00;;;;;;5033726;28;20438;-76
2023/08/30 06:41:45;;;;;;;8.57;4.20;;;16.00;1.00;;;;;;5048489;28;20393;-76
2023/08/30 06:44:11;;;;;;;10.40;4.72;;;16.20;1.00;;;;;;5048603;28;20985;-76
2023/08/30 06:46:37;;;;;;;8.90;4.55;;;16.40;1.00;;;;;;5048595;28;20393;-76
2023/08/30 06:49:03;;;;;;;13.35;4.90;;;16.60;1.00;;;;;;5048505;28;20484;-76
2023/08/30 06:51:28;;;;;;;9.05;4.45;;;16.50;1.00;;;;;;5048715;28;20862;-76
2023/08/30 06:53:55;;;;;;;9.57;4.80;;;16.40;1.00;;;;;;5048061;28;20397;-76
2023/08/30 06:56:20;;;;;;;9.55;4.57;;;16.40;1.00;;;;;;5048671;28;20381;-76
2023/08/30 06:58:46;;;;;;;10.07;4.90;;;16.60;1.00;;;;;;5048448;28;20897;-74
2023/08/30 07:01:12;;;;;;;9.73;4.63;;;16.80;99.90;;;;;;5047942;28;20952;-74
2023/08/30 07:03:39;;;;;;;9.02;4.80;;;16.90;99.90;;;;;;5047985;28;20401;-74
2023/08/30 07:06:05;;;;;;;8.63;4.43;;;16.80;99.90;;;;;;5048198;28;20411;-73
2023/08/30 07:08:31;;;;;;;9.50;4.65;;;16.70;99.90;;;;;;5047914;28;20393;-74
2023/08/30 07:10:56;;;;;;;9.38;4.45;;;16.60;99.90;;;;;;5047901;28;20479;-74
2023/08/30 07:13:22;;;;;;;9.50;4.70;;;16.60;1.00;;;;;;5043821;28;20394;-74
2023/08/30 07:15:47;;;;;;;8.60;4.30;;;16.70;1.00;;;;;;5028791;28;20386;-74
2023/08/30 07:18:14;;;;;;;9.32;4.45;;;16.70;99.90;;;;;;5028100;28;20414;-74
2023/08/30 07:20:40;;;;;;;9.25;4.95;;;16.60;99.90;;;;;;5028032;28;20861;-74
2023/08/30 07:23:05;;;;;;;10.67;5.00;;;16.60;1.00;;;;;;5027610;28;20411;-74
2023/08/30 07:25:32;;;;;;;10.23;4.20;;;16.70;99.90;;;;;;5028048;28;20391;-74
2023/08/30 07:27:59;;;;;;;9.38;4.30;;;16.80;1.00;;;;;;5027899;28;20375;-74
2023/08/30 07:30:25;;;;;;;10.70;4.70;;;16.80;99.90;;;;;;5027994;28;20864;-74
2023/08/30 07:32:51;;;;;;;8.90;4.40;;;16.70;99.90;;;;;;5028552;28;20406;-74
2023/08/30 07:35:16;;;;;;;10.90;4.97;;;16.80;1.00;;;;;;5028048;28;20455;-74
2023/08/30 07:37:42;;;;;;;10.10;5.28;;;16.90;99.90;;;;;;5027601;28;20895;-74
2023/08/30 07:40:08;;;;;;;9.17;4.87;;;17.00;99.90;;;;;;5027859;28;20415;-74
2023/08/30 07:42:34;;;;;;;8.88;3.80;;;17.20;99.90;;;;;;5027766;28;20482;-72
2023/08/30 07:44:59;;;;;;;11.00;5.23;;;17.10;99.90;;;;;;5010187;28;20501;-73
2023/08/30 07:47:25;;;;;;;10.00;4.93;;;17.30;99.90;;;;;;5027586;28;20387;-73
2023/08/30 07:49:50;;;;;;;9.23;4.57;;;17.40;99.90;;;;;;5028370;28;20398;-73
2023/08/30 07:52:16;;;;;;;8.93;4.67;;;17.50;1.00;;;;;;5027534;28;20398;-73
2023/08/30 07:54:41;;;;;;;9.30;4.57;;;17.50;1.00;;;;;;5013353;28;20395;-73
2023/08/30 07:57:07;;;;;;;10.50;4.25;;;17.40;99.90;;;;;;5031566;28;20945;-73
2023/08/30 07:59:34;;;;;;;9.93;4.40;;;17.30;99.90;;;;;;5031109;28;20438;-73
2023/08/30 08:02:01;;;;;;;9.32;4.07;;;17.30;99.90;;;;;;5031750;28;20959;-73
2023/08/30 08:04:26;;;;;;;9.45;5.47;;;17.40;99.90;;;;;;5032377;28;20395;-74
2023/08/30 08:06:52;;;;;;;9.77;3.87;;;17.40;99.90;;;;;;5032406;28;20921;-75
2023/08/30 08:09:18;;;;;;;8.48;4.22;;;17.40;1.00;;;;;;5032711;28;20917;-75
2023/08/30 08:11:43;;;;;;;8.20;4.30;;;17.50;1.00;;;;;;5031154;28;20430;-75
2023/08/30 08:14:10;;;;;;;8.00;3.80;;;17.50;1.00;;;;;;5041848;28;20390;-74
2023/08/30 08:16:36;;;;;;;8.38;3.70;;;17.50;1.00;;;;;;5051190;28;20416;-75
2023/08/30 08:19:02;;;;;;;8.13;3.90;;;17.70;99.90;;;;;;5051027;28;20425;-75
2023/08/30 08:21:28;;;;;;;7.88;3.72;;;17.80;1.00;;;;;;5050687;28;20421;-75
2023/08/30 08:23:53;;;;;;;11.17;4.50;;;17.90;1.00;;;;;;5050892;28;20400;-75
2023/08/30 08:26:19;;;;;;;9.38;3.85;;;18.00;99.90;;;;;;5051335;28;20393;-75
2023/08/30 08:28:44;;;;;;;8.27;3.70;;;18.30;1.00;;;;;;5050877;28;20389;-75
2023/08/30 08:31:10;;;;;;;9.90;4.32;;;18.70;99.90;;;;;;5051231;28;20399;-74
2023/08/30 08:33:36;;;;;;;9.07;4.30;;;19.00;46.30;;;;;;5050570;28;20393;-75
2023/08/30 08:36:02;;;;;;;10.52;4.43;;;19.10;99.90;;;;;;5051036;28;20473;-75
2023/08/30 08:38:27;;;;;;;9.98;4.00;;;;;;;;;;5051127;28;20485;-75
2023/08/30 08:41:08;;;;;;;8.63;3.80;;;21.80;99.90;;;;;;5050907;28;20417;-75
2023/08/30 08:43:36;;;;;;;8.27;3.50;;;22.10;99.90;;;;;;5051212;28;20397;-76
2023/08/30 08:46:03;;;;;;;7.00;2.80;;;22.90;1.00;;;;;;5050621;28;20397;-75
2023/08/30 08:48:31;;;;;;;8.40;3.22;;;23.40;1.00;;;;;;5050305;28;20398;-74
2023/08/30 08:50:57;;;;;;;7.57;3.00;;;24.00;1.00;;;;;;5050409;28;20393;-74
2023/08/30 08:53:23;;;;;;;6.65;2.47;;;24.10;1.00;;;;;;5015556;28;20396;-74
2023/08/30 08:55:51;;;;;;;6.65;2.55;;;23.90;1.00;;;;;;5050876;28;20458;-75
2023/08/30 08:58:16;;;;;;;7.43;2.80;;;24.20;1.00;;;;;;5050401;28;20397;-75
2023/08/30 09:00:43;;;;;;;6.32;2.65;;;24.40;1.00;;;;;;5050122;28;20429;-75
2023/08/30 09:03:09;;;;;;;7.70;2.90;;;24.30;1.00;;;;;;5050137;28;20390;-75
2023/08/30 09:05:37;;;;;;;7.85;3.38;;;24.20;1.00;;;;;;5049269;28;20856;-75
2023/08/30 09:08:04;;;;;;;6.80;2.50;;;24.10;1.00;;;;;;5049911;28;20377;-75
2023/08/30 09:10:29;;;;;;;7.20;2.47;;;24.90;1.00;;;;;;5050258;28;20443;-75
2023/08/30 09:12:55;;;;;;;6.90;2.90;;;25.40;1.00;;;;;;5049804;28;20782;-75
2023/08/30 09:15:22;;;;;;;6.82;2.60;;;25.80;1.00;;;;;;5031342;28;20438;-75
2023/08/30 09:17:48;;;;;;;6.55;2.70;;;25.90;1.00;;;;;;5032597;28;20390;-75
2023/08/30 09:20:14;;;;;;;8.35;2.70;;;26.20;1.00;;;;;;5030223;28;21014;-75
2023/08/30 09:22:40;;;;;;;8.30;3.10;;;25.90;1.00;;;;;;5030303;28;20411;-75
2023/08/30 09:25:09;;;;;;;7.28;2.50;;;26.30;1.00;;;;;;5030090;28;20398;-77
2023/08/30 09:27:35;;;;;;;6.93;2.70;;;26.60;1.00;;;;;;5030167;28;20465;-75
2023/08/30 09:30:02;;;;;;;6.60;2.42;;;25.70;1.00;;;;;;5030193;28;20399;-75
2023/08/30 09:32:28;;;;;;;5.80;2.00;;;25.90;1.00;;;;;;5030042;28;20384;-77
2023/08/30 09:34:53;;;;;;;6.20;2.22;;;26.40;1.00;;;;;;5029895;28;20383;-75
2023/08/30 09:37:23;;;;;;;7.57;2.50;;;25.90;1.00;;;;;;5030322;28;20502;-77
2023/08/30 09:39:51;;;;;;;7.03;2.30;;;26.60;1.00;;;;;;5030622;28;20418;-77
2023/08/30 09:42:17;;;;;;;6.43;2.28;;;27.40;34.70;;;;;;5030710;28;20733;-77
2023/08/30 09:44:43;;;;;;;8.77;2.30;;;27.10;26.80;;;;;;5029938;28;20379;-77
2023/08/30 09:47:09;;;;;;;6.20;2.10;;;27.40;58.10;;;;;;5029536;28;20405;-77
2023/08/30 09:49:45;;;;;;;7.00;2.50;;;27.60;38.50;;;;;;5029748;28;20387;-77
2023/08/30 09:52:14;;;;;;;5.90;2.17;;;26.80;7.60;;;;;;5029499;28;20820;-77
2023/08/30 09:54:43;;;;;;;5.80;2.07;;;26.70;10.00;;;;;;5029725;28;20406;-77
2023/08/30 09:57:10;;;;;;;5.60;1.80;;;26.20;4.10;;;;;;5029816;28;20446;-77
2023/08/30 09:59:37;;;;;;;9.50;2.10;;;26.40;15.20;;;;;;5029680;28;20799;-77
2023/08/30 10:02:04;;;;;;;5.50;1.83;;;26.10;1.00;;;;;;5029219;28;20399;-77
2023/08/30 10:04:31;;;;;;;7.20;2.00;;;25.80;1.00;;;;;;5029187;28;20395;-77
2023/08/30 10:06:58;;;;;;;6.07;2.20;;;25.90;1.00;;;;;;5029486;28;20397;-77
2023/08/30 10:09:24;;;;;;;7.13;2.00;;;26.30;1.00;;;;;;5029379;28;20394;-77
2023/08/30 10:11:51;;;;;;;9.70;2.10;;;26.30;1.00;;;;;;5029874;28;20399;-77
2023/08/30 10:14:17;;;;;;;7.45;1.95;;;26.30;1.00;;;;;;5040990;28;20443;-77
2023/08/30 10:16:49;;;;;;;6.45;2.25;;;26.60;1.00;;;;;;5048638;28;20398;-77
2023/08/30 10:19:25;;;;;;;6.18;2.22;;;26.80;4.50;;;;;;5049548;28;20401;-77
2023/08/30 10:22:02;;;;;;;6.20;2.03;;;27.50;1.00;;;;;;5049628;28;20925;-77
2023/08/30 10:24:29;;;;;;;5.78;2.10;;;27.40;1.00;;;;;;5049092;28;20904;-77
2023/08/30 10:26:56;;;;;;;5.70;1.70;;;27.30;1.00;;;;;;5051266;28;20390;-78
2023/08/30 10:29:23;;;;;;;5.68;1.90;;;27.00;1.00;;;;;;5050654;28;20385;-77
2023/08/30 10:31:49;;;;;;;5.72;1.70;;;26.20;1.00;;;;;;5049330;28;20727;-77
2023/08/30 10:34:16;;;;;;;6.03;1.95;;;26.10;1.00;;;;;;5048927;28;20392;-74
2023/08/30 10:36:43;;;;;;;6.10;1.80;;;25.30;1.00;;;;;;5048903;28;20405;-75
2023/08/30 10:39:13;;;;;;;6.23;2.10;;;25.40;1.00;;;;;;5048484;28;20412;-76
2023/08/30 10:41:54;;;;;;;6.00;2.20;;;25.60;1.00;;;;;;5048742;28;20421;-75
2023/08/30 10:44:21;;;;;;;6.90;2.25;;;26.40;1.00;;;;;;5048469;28;20381;-77
2023/08/30 10:46:52;;;;;;;7.90;2.75;;;26.30;1.00;;;;;;5049090;28;20424;-77
2023/08/30 10:49:18;;;;;;;6.65;2.13;;;26.80;1.00;;;;;;5049203;28;20495;-77
2023/08/30 10:51:44;;;;;;;6.47;2.30;;;26.50;1.00;;;;;;5048447;28;20400;-75
2023/08/30 10:54:17;;;;;;;6.20;2.20;;;25.80;1.00;;;;;;5048494;28;20386;-74
2023/08/30 10:56:56;;;;;;;6.20;2.30;;;25.90;1.00;;;;;;5048185;28;20393;-74
2023/08/30 10:59:22;;;;;;;9.05;2.55;;;25.70;1.00;;;;;;5048232;28;20814;-74
2023/08/30 11:01:49;;;;;;;7.00;2.33;;;25.30;1.00;;;;;;5030787;28;20409;-74
2023/08/30 11:04:19;;;;;;;6.68;2.47;;;24.80;1.00;;;;;;5048181;28;20396;-74
2023/08/30 11:06:46;;;;;;;6.20;2.20;;;24.40;1.00;;;;;;5048283;28;20393;-74
2023/08/30 11:09:23;;;;;;;5.95;2.10;;;24.00;1.00;;;;;;5048398;28;20492;-74
2023/08/30 11:11:50;;;;;;;6.72;2.85;;;23.60;1.00;;;;;;5048942;28;20854;-76
2023/08/30 11:14:17;;;;;;;9.23;2.60;;;22.80;1.00;;;;;;5048299;28;20435;-76
2023/08/30 11:16:43;;;;;;;8.15;3.10;;;22.20;1.00;;;;;;5048358;28;20420;-76
2023/08/30 11:19:11;;;;;;;6.80;2.70;;;21.70;1.00;;;;;;5048304;28;20400;-76
2023/08/30 11:21:38;;;;;;;7.15;3.00;;;21.40;99.90;;;;;;5047990;28;20467;-76
2023/08/30 11:24:04;;;;;;;7.47;2.75;;;21.10;99.90;;;;;;5047944;28;20397;-76
2023/08/30 11:26:30;;;;;;;7.50;3.05;;;20.90;99.90;;;;;;5048192;28;20888;-76
2023/08/30 11:28:55;;;;;;;7.10;2.80;;;20.80;99.90;;;;;;5050029;28;20393;-76
2023/08/30 11:31:27;;;;;;;7.10;2.90;;;20.60;1.00;;;;;;5052680;28;20408;-76
2023/08/30 11:33:55;;;;;;;7.47;3.05;;;20.40;11.20;;;;;;5052163;28;20393;-76
2023/08/30 11:36:22;;;;;;;7.50;2.70;;;20.20;1.00;;;;;;5052544;28;20442;-74
2023/08/30 11:38:51;;;;;;;7.65;2.88;;;20.10;99.90;;;;;;5053522;28;20500;-74
2023/08/30 11:41:17;;;;;;;7.22;2.90;;;20.00;6.40;;;;;;5052188;28;20413;-74
2023/08/30 11:43:43;;;;;;;7.05;2.60;;;19.80;99.90;;;;;;5051647;28;20405;-74
2023/08/30 11:46:09;;;;;;;7.50;3.17;;;19.60;1.00;;;;;;5052339;28;20389;-74
2023/08/30 11:48:35;;;;;;;7.03;2.80;;;19.60;1.00;;;;;;5051658;28;20924;-74
2023/08/30 11:51:01;;;;;;;9.20;3.40;;;19.50;99.90;;;;;;5051350;28;20790;-74
2023/08/30 11:53:27;;;;;;;7.40;3.40;;;19.50;1.00;;;;;;5051453;28;20488;-74
2023/08/30 11:55:53;;;;;;;10.50;3.57;;;19.60;1.00;;;;;;5051843;28;20757;-74
2023/08/30 11:58:19;;;;;;;8.55;3.60;;;19.90;1.00;;;;;;5051696;28;20459;-74
2023/08/30 12:00:46;;;;;;;7.83;3.10;;;20.00;1.00;;;;;;5051113;28;20780;-74
2023/08/30 12:03:17;;;;;;;9.00;3.90;;;19.90;99.90;;;;;;5051397;28;20474;-74
2023/08/30 12:05:49;;;;;;;7.68;3.47;;;19.80;1.00;;;;;;5051099;28;20429;-74
2023/08/30 12:08:33;;;;;;;8.43;3.70;;;19.80;1.00;;;;;;5051703;28;20389;-74
2023/08/30 12:10:58;;;;;;;8.90;3.70;;;19.80;84.20;;;;;;5051380;28;20463;-74
2023/08/30 12:13:25;;;;;;;8.03;3.20;;;19.70;99.90;;;;;;5047376;28;20399;-74
2023/08/30 12:15:52;;;;;;;9.35;4.30;;;19.50;99.90;;;;;;5036470;28;20383;-74
2023/08/30 12:18:24;;;;;;;9.37;4.67;;;19.60;99.90;;;;;;5035167;28;20725;-74
2023/08/30 12:21:03;;;;;;;8.77;4.03;;;19.50;99.90;;;;;;5031754;28;20497;-74
2023/08/30 12:23:33;;;;;;;8.45;3.80;;;19.40;99.90;;;;;;5031120;28;20423;-74
2023/08/30 12:25:58;;;;;;;7.70;3.95;;;19.50;6.10;;;;;;5030814;28;20395;-74
2023/08/30 12:28:25;;;;;;;9.10;4.07;;;19.70;99.90;;;;;;5031061;28;20453;-74
2023/08/30 12:30:51;;;;;;;9.98;4.35;;;19.90;99.90;;;;;;5031209;28;20908;-74
2023/08/30 12:33:18;;;;;;;7.80;3.30;;;19.90;1.00;;;;;;5013564;28;20399;-74
2023/08/30 12:35:44;;;;;;;9.02;3.60;;;19.90;99.90;;;;;;5030800;28;20402;-74
2023/08/30 12:38:10;;;;;;;8.32;3.35;;;20.00;1.00;;;;;;5013124;28;20403;-74
2023/08/30 12:40:36;;;;;;;7.90;4.03;;;20.00;99.90;;;;;;5030159;28;20423;-74
2023/08/30 12:43:01;;;;;;;9.35;3.60;;;20.00;1.00;;;;;;5030730;28;20441;-77
2023/08/30 12:45:27;;;;;;;9.37;3.80;;;20.20;1.00;;;;;;5031340;28;20712;-75